createdAt,value
2022-09-28T00:01:16.922Z,10.90
2022-09-28T00:03:45.659Z,10.90
2022-09-28T00:06:17.907Z,10.90
2022-09-28T00:08:46.277Z,11.00
2022-09-28T00:11:16.217Z,10.90
2022-09-28T00:13:46.081Z,11.00
2022-09-28T00:16:16.829Z,11.00
2022-09-28T00:18:45.610Z,11.00
2022-09-28T00:21:17.335Z,11.00
2022-09-28T00:24:00.115Z,11.00
2022-09-28T00:26:28.948Z,10.90
2022-09-28T00:28:59.194Z,10.90
2022-09-28T00:31:29.278Z,11.00
2022-09-28T00:33:57.856Z,10.90
2022-09-28T00:36:28.191Z,10.90
2022-09-28T00:38:57.420Z,10.90
2022-09-28T00:41:26.666Z,10.90
2022-09-28T00:43:55.574Z,11.00
2022-09-28T00:46:34.984Z,10.90
2022-09-28T00:49:07.471Z,10.90
2022-09-28T00:51:39.394Z,11.00
2022-09-28T00:54:10.072Z,11.00
2022-09-28T00:56:41.486Z,11.00
2022-09-28T00:59:10.916Z,11.10
2022-09-28T01:01:39.376Z,11.10
2022-09-28T01:04:08.162Z,11.10
2022-09-28T01:06:40.166Z,11.00
2022-09-28T01:09:11.078Z,11.00
2022-09-28T01:11:40.460Z,11.10
2022-09-28T01:14:13.357Z,11.10
2022-09-28T01:16:48.130Z,11.10
2022-09-28T01:20:06.425Z,11.10
2022-09-28T01:23:13.880Z,11.10
2022-09-28T01:25:49.125Z,11.10
2022-09-28T01:28:20.558Z,11.00
2022-09-28T01:30:58.410Z,11.00
2022-09-28T01:33:30.943Z,11.10
2022-09-28T01:36:05.319Z,11.10
2022-09-28T01:38:38.973Z,11.10
2022-09-28T01:41:08.418Z,11.00
2022-09-28T01:43:41.475Z,11.10
2022-09-28T01:46:15.209Z,11.10
2022-09-28T01:48:47.771Z,11.10
2022-09-28T01:51:20.914Z,11.10
2022-09-28T01:53:55.373Z,11.10
2022-09-28T01:56:30.147Z,11.10
2022-09-28T01:59:07.849Z,11.10
2022-09-28T02:01:41.619Z,11.10
2022-09-28T02:04:22.855Z,11.00
2022-09-28T02:06:55.397Z,11.00
2022-09-28T02:09:30.547Z,11.00
2022-09-28T02:12:07.104Z,11.00
2022-09-28T02:14:39.031Z,11.10
2022-09-28T02:17:07.493Z,11.10
2022-09-28T02:19:37.023Z,11.10
2022-09-28T02:22:14.428Z,11.20
2022-09-28T02:24:46.368Z,11.20
2022-09-28T02:27:30.417Z,11.20
2022-09-28T02:30:00.332Z,11.20
2022-09-28T02:32:32.225Z,11.10
2022-09-28T02:35:02.947Z,11.20
2022-09-28T02:37:31.136Z,11.20
2022-09-28T02:39:59.477Z,11.20
2022-09-28T02:42:35.829Z,11.30
2022-09-28T02:45:16.920Z,11.30
2022-09-28T02:48:03.139Z,11.40
2022-09-28T02:50:42.441Z,11.50
2022-09-28T02:53:32.130Z,11.50
2022-09-28T02:56:15.949Z,11.50
2022-09-28T02:58:57.127Z,11.50
2022-09-28T03:01:35.734Z,11.40
2022-09-28T03:04:13.492Z,11.40
2022-09-28T03:06:46.815Z,11.30
2022-09-28T03:09:21.044Z,11.30
2022-09-28T03:11:54.015Z,11.30
2022-09-28T03:14:22.444Z,11.10
2022-09-28T03:16:56.599Z,10.90
2022-09-28T03:19:31.718Z,10.90
2022-09-28T03:22:01.760Z,10.90
2022-09-28T03:24:29.936Z,11.10
2022-09-28T03:26:58.083Z,10.90
2022-09-28T03:29:26.694Z,10.90
2022-09-28T03:32:02.390Z,10.70
2022-09-28T03:34:30.588Z,10.70
2022-09-28T03:36:58.728Z,10.60
2022-09-28T03:39:26.848Z,10.70
2022-09-28T03:41:55.113Z,10.70
2022-09-28T03:44:23.397Z,10.60
2022-09-28T03:46:51.751Z,10.60
2022-09-28T03:49:21.494Z,10.60
2022-09-28T03:51:51.003Z,10.60
2022-09-28T03:54:19.417Z,10.60
2022-09-28T03:56:47.806Z,10.70
2022-09-28T03:59:16.183Z,10.80
2022-09-28T04:01:44.430Z,10.90
2022-09-28T04:04:13.195Z,11.00
2022-09-28T04:06:42.711Z,11.00
2022-09-28T04:09:11.282Z,11.10
2022-09-28T04:12:02.429Z,11.10
2022-09-28T04:14:27.779Z,11.10
2022-09-28T04:16:55.971Z,11.10
2022-09-28T04:19:26.723Z,11.20
2022-09-28T04:22:15.017Z,11.30
2022-09-28T04:24:43.612Z,11.40
2022-09-28T04:27:29.092Z,11.40
2022-09-28T04:29:57.211Z,11.40
2022-09-28T04:32:25.400Z,11.50
2022-09-28T04:34:53.817Z,11.40
2022-09-28T04:37:23.479Z,11.30
2022-09-28T04:39:51.975Z,11.30
2022-09-28T04:42:21.121Z,11.20
2022-09-28T04:44:50.938Z,11.20
2022-09-28T04:47:19.051Z,11.30
2022-09-28T04:49:49.990Z,11.40
2022-09-28T04:52:28.595Z,11.40
2022-09-28T04:54:56.637Z,11.40
2022-09-28T04:57:26.715Z,11.40
2022-09-28T04:59:55.946Z,11.50
2022-09-28T05:02:24.662Z,11.50
2022-09-28T05:05:11.508Z,11.50
2022-09-28T05:08:10.223Z,11.60
2022-09-28T05:10:40.427Z,11.50
2022-09-28T05:13:08.829Z,11.50
2022-09-28T05:15:37.427Z,11.50
2022-09-28T05:18:06.223Z,11.50
2022-09-28T05:20:48.883Z,11.50
2022-09-28T05:23:18.885Z,11.40
2022-09-28T05:25:47.407Z,11.50
2022-09-28T05:28:28.055Z,11.50
2022-09-28T05:31:16.917Z,11.50
2022-09-28T05:34:11.380Z,11.50
2022-09-28T05:36:42.635Z,11.50
2022-09-28T05:39:12.168Z,11.50
2022-09-28T05:41:40.279Z,11.50
2022-09-28T05:44:08.534Z,11.50
2022-09-28T05:46:37.360Z,11.50
2022-09-28T05:49:05.770Z,11.50
2022-09-28T05:51:34.204Z,11.60
2022-09-28T05:54:14.846Z,11.60
2022-09-28T05:56:48.136Z,11.70
2022-09-28T05:59:17.596Z,11.70
2022-09-28T06:01:45.790Z,11.70
2022-09-28T06:04:14.767Z,11.50
2022-09-28T06:06:43.999Z,11.60
2022-09-28T06:09:12.190Z,11.60
2022-09-28T06:12:01.091Z,11.70
2022-09-28T06:14:48.663Z,11.60
2022-09-28T06:17:16.984Z,11.60
2022-09-28T06:19:52.369Z,11.70
2022-09-28T06:22:52.335Z,11.70
2022-09-28T06:25:21.576Z,11.70
2022-09-28T06:27:58.651Z,11.70
2022-09-28T06:30:28.055Z,11.70
2022-09-28T06:32:57.445Z,11.60
2022-09-28T06:35:27.523Z,11.70
2022-09-28T06:37:56.348Z,11.60
2022-09-28T06:40:24.892Z,11.60
2022-09-28T06:42:59.880Z,11.60
2022-09-28T06:45:52.727Z,11.60
2022-09-28T06:48:27.248Z,11.60
2022-09-28T06:50:55.445Z,11.70
2022-09-28T06:53:35.788Z,11.60
2022-09-28T06:56:37.075Z,11.70
2022-09-28T06:59:06.633Z,11.70
2022-09-28T07:01:36.384Z,11.70
2022-09-28T07:04:43.002Z,11.70
2022-09-28T07:07:29.562Z,11.80
2022-09-28T07:10:10.074Z,11.80
2022-09-28T07:13:01.850Z,11.90
2022-09-28T07:15:44.878Z,11.90
2022-09-28T07:18:15.774Z,11.90
2022-09-28T07:20:53.654Z,11.90
2022-09-28T07:23:22.830Z,11.90
2022-09-28T07:26:24.614Z,11.90
2022-09-28T07:29:11.747Z,11.90
2022-09-28T07:32:00.258Z,12.00
2022-09-28T07:34:48.800Z,12.10
2022-09-28T07:37:27.447Z,12.10
2022-09-28T07:40:13.188Z,11.90
2022-09-28T07:42:41.666Z,12.10
2022-09-28T07:45:11.686Z,12.10
2022-09-28T07:47:41.209Z,12.20
2022-09-28T07:50:27.943Z,12.20
2022-09-28T07:53:04.399Z,12.30
2022-09-28T07:55:42.477Z,12.30
2022-09-28T07:58:26.382Z,12.20
2022-09-28T08:01:06.809Z,12.20
2022-09-28T08:03:37.116Z,12.20
2022-09-28T08:06:07.042Z,12.00
2022-09-28T08:08:35.786Z,12.10
2022-09-28T08:11:04.338Z,12.00
2022-09-28T08:14:00.192Z,11.80
2022-09-28T08:16:48.626Z,11.90
2022-09-28T08:19:58.984Z,12.00
2022-09-28T08:22:27.152Z,12.10
2022-09-28T08:24:57.463Z,12.20
2022-09-28T08:27:25.626Z,12.30
2022-09-28T08:29:54.351Z,12.30
2022-09-28T08:32:49.476Z,12.30
2022-09-28T08:35:42.344Z,12.40
2022-09-28T08:38:32.050Z,12.20
2022-09-28T08:41:44.164Z,12.30
2022-09-28T08:47:57.451Z,12.10
2022-09-28T08:50:54.873Z,12.30
2022-09-28T08:53:43.281Z,12.50
2022-09-28T08:56:31.297Z,12.20
2022-09-28T08:59:03.481Z,11.80
2022-09-28T09:01:38.400Z,11.70
2022-09-28T09:04:10.471Z,11.60
2022-09-28T09:07:17.857Z,11.60
2022-09-28T09:10:04.503Z,11.60
2022-09-28T09:12:39.411Z,11.50
2022-09-28T09:15:22.160Z,11.60
2022-09-28T09:18:07.195Z,11.70
2022-09-28T09:20:57.439Z,11.90
2022-09-28T09:23:38.390Z,11.90
2022-09-28T09:26:19.090Z,12.10
2022-09-28T09:29:14.898Z,11.80
2022-09-28T09:32:05.824Z,11.80
2022-09-28T09:35:11.372Z,11.50
2022-09-28T09:38:20.577Z,11.60
2022-09-28T09:41:20.765Z,11.70
2022-09-28T09:44:39.952Z,11.60
2022-09-28T09:47:33.170Z,11.60
2022-09-28T09:50:13.525Z,11.60
2022-09-28T09:52:52.480Z,11.50
2022-09-28T09:55:30.056Z,11.60
2022-09-28T09:58:22.662Z,11.70
2022-09-28T10:01:06.093Z,11.80
2022-09-28T10:03:55.398Z,11.80
2022-09-28T10:06:28.613Z,11.80
2022-09-28T10:09:04.988Z,11.90
2022-09-28T10:11:38.259Z,11.80
2022-09-28T10:14:13.411Z,11.80
2022-09-28T10:16:49.688Z,11.90
2022-09-28T10:19:33.570Z,11.90
2022-09-28T10:22:24.226Z,11.90
2022-09-28T10:24:58.345Z,11.80
2022-09-28T10:27:32.851Z,11.80
2022-09-28T10:30:13.908Z,11.80
2022-09-28T10:32:44.843Z,11.80
2022-09-28T10:35:21.588Z,11.90
2022-09-28T10:38:01.731Z,11.80
2022-09-28T10:40:59.396Z,11.90
2022-09-28T10:44:06.064Z,12.00
2022-09-28T10:47:02.019Z,11.90
2022-09-28T10:49:46.502Z,12.10
2022-09-28T10:52:34.338Z,12.20
2022-09-28T10:55:03.100Z,12.10
2022-09-28T10:57:36.128Z,12.20
2022-09-28T11:00:30.304Z,12.40
2022-09-28T11:03:24.043Z,12.40
2022-09-28T11:06:00.769Z,12.30
2022-09-28T11:08:32.363Z,12.20
2022-09-28T11:11:09.385Z,12.20
2022-09-28T11:13:43.346Z,12.30
2022-09-28T11:16:28.457Z,12.20
2022-09-28T11:18:59.940Z,12.40
2022-09-28T11:21:32.145Z,12.30
2022-09-28T11:24:07.365Z,12.40
2022-09-28T11:26:42.409Z,12.50
2022-09-28T11:29:24.637Z,12.60
2022-09-28T11:32:15.876Z,12.40
2022-09-28T11:35:29.329Z,12.40
2022-09-28T11:38:14.340Z,12.40
2022-09-28T11:41:15.321Z,12.50
2022-09-28T11:43:58.479Z,12.50
2022-09-28T11:46:33.775Z,12.60
2022-09-28T11:49:31.864Z,12.50
2022-09-28T11:52:07.860Z,12.60
2022-09-28T11:54:43.839Z,12.80
2022-09-28T11:57:18.458Z,12.90
2022-09-28T11:59:56.344Z,12.90
2022-09-28T12:02:28.401Z,13.00
2022-09-28T12:05:18.383Z,13.10
2022-09-28T12:07:53.136Z,13.10
2022-09-28T12:10:48.565Z,13.20
2022-09-28T12:13:23.324Z,13.30
2022-09-28T12:18:50.644Z,13.30
2022-09-28T12:21:32.430Z,13.30
2022-09-28T12:24:11.324Z,13.40
2022-09-28T12:26:46.564Z,13.30
2022-09-28T12:29:17.429Z,13.40
2022-09-28T12:31:57.867Z,13.00
2022-09-28T12:34:26.064Z,13.00
2022-09-28T12:37:08.026Z,13.10
2022-09-28T12:39:58.032Z,13.10
2022-09-28T12:42:44.308Z,12.90
2022-09-28T12:45:53.160Z,12.70
2022-09-28T12:49:43.569Z,12.70
2022-09-28T12:51:51.427Z,12.80
2022-09-28T12:54:53.288Z,12.90
2022-09-28T12:57:37.388Z,13.00
2022-09-28T13:00:09.959Z,12.90
2022-09-28T13:03:03.082Z,12.90
2022-09-28T13:06:11.229Z,12.80
2022-09-28T13:08:50.533Z,12.70
2022-09-28T13:11:31.846Z,12.80
2022-09-28T13:14:24.901Z,12.90
2022-09-28T13:17:00.620Z,12.90
2022-09-28T13:19:39.367Z,12.90
2022-09-28T13:22:23.085Z,13.00
2022-09-28T13:24:54.832Z,13.10
2022-09-28T13:27:32.415Z,13.10
2022-09-28T13:30:02.651Z,13.20
2022-09-28T13:32:32.770Z,13.00
2022-09-28T13:35:02.807Z,12.90
2022-09-28T13:37:31.403Z,12.80
2022-09-28T13:40:05.661Z,12.80
2022-09-28T13:42:59.963Z,13.00
2022-09-28T13:45:37.539Z,12.90
2022-09-28T13:48:13.919Z,13.00
2022-09-28T13:51:06.033Z,13.10
2022-09-28T13:53:47.887Z,13.20
2022-09-28T13:56:32.282Z,13.20
2022-09-28T13:59:10.454Z,13.20
2022-09-28T14:01:42.067Z,13.30
2022-09-28T14:04:18.980Z,13.30
2022-09-28T14:06:55.650Z,13.40
2022-09-28T14:09:42.264Z,13.40
2022-09-28T14:12:44.521Z,13.40
2022-09-28T14:16:15.492Z,13.50
2022-09-28T14:18:45.522Z,13.60
2022-09-28T14:21:44.926Z,13.30
2022-09-28T14:24:22.410Z,13.30
2022-09-28T14:27:24.388Z,13.30
2022-09-28T14:30:06.389Z,13.40
2022-09-28T14:32:37.588Z,13.50
2022-09-28T14:35:09.301Z,13.50
2022-09-28T14:37:56.895Z,13.50
2022-09-28T14:40:49.522Z,13.30
2022-09-28T14:43:28.783Z,13.20
2022-09-28T14:46:32.766Z,13.20
2022-09-28T14:49:03.808Z,13.10
2022-09-28T14:52:05.935Z,13.00
2022-09-28T14:54:46.131Z,12.90
2022-09-28T14:57:19.715Z,12.90
2022-09-28T14:59:48.215Z,12.90
2022-09-28T15:02:23.121Z,13.00
2022-09-28T15:04:55.113Z,13.00
2022-09-28T15:07:25.671Z,13.00
2022-09-28T15:09:55.389Z,13.10
2022-09-28T15:12:27.514Z,13.00
2022-09-28T15:14:58.619Z,13.10
2022-09-28T15:17:29.545Z,13.00
2022-09-28T15:20:25.196Z,12.90
2022-09-28T15:22:58.590Z,12.90
2022-09-28T15:25:29.870Z,12.90
2022-09-28T15:28:01.306Z,12.80
2022-09-28T15:30:31.952Z,12.90
2022-09-28T15:33:15.484Z,13.00
2022-09-28T15:35:48.684Z,13.10
2022-09-28T15:38:18.511Z,13.00
2022-09-28T15:40:47.790Z,13.10
2022-09-28T15:43:26.881Z,13.10
2022-09-28T15:46:05.061Z,13.00
2022-09-28T15:48:39.276Z,13.00
2022-09-28T15:51:11.814Z,13.10
2022-09-28T15:53:47.976Z,13.10
2022-09-28T15:56:16.123Z,13.20
2022-09-28T15:58:44.553Z,13.20
2022-09-28T16:01:27.175Z,13.10
2022-09-28T16:03:55.460Z,13.00
2022-09-28T16:06:25.166Z,13.00
2022-09-28T16:08:53.732Z,13.10
2022-09-28T16:11:26.274Z,13.20
2022-09-28T16:14:04.495Z,13.20
2022-09-28T16:16:41.144Z,13.20
2022-09-28T16:19:23.577Z,13.10
2022-09-28T16:21:55.767Z,13.20
2022-09-28T16:24:27.702Z,13.10
2022-09-28T16:27:01.371Z,13.00
2022-09-28T16:29:39.099Z,13.10
2022-09-28T16:32:38.350Z,13.10
2022-09-28T16:35:23.150Z,13.10
2022-09-28T16:38:07.554Z,13.10
2022-09-28T16:40:36.979Z,13.10
2022-09-28T16:43:08.642Z,13.10
2022-09-28T16:45:36.823Z,13.10
2022-09-28T16:48:05.921Z,13.00
2022-09-28T16:50:34.047Z,13.00
2022-09-28T16:53:31.118Z,12.90
2022-09-28T16:56:00.096Z,13.00
2022-09-28T16:58:28.852Z,13.00
2022-09-28T17:00:57.858Z,13.00
2022-09-28T17:03:26.729Z,13.00
2022-09-28T17:05:55.768Z,12.90
2022-09-28T17:08:26.200Z,12.90
2022-09-28T17:11:13.919Z,12.80
2022-09-28T17:13:45.293Z,12.70
2022-09-28T17:16:15.777Z,12.70
2022-09-28T17:18:44.070Z,12.60
2022-09-28T17:21:15.725Z,12.70
2022-09-28T17:23:46.320Z,12.70
2022-09-28T17:26:21.767Z,12.60
2022-09-28T17:28:49.896Z,12.60
2022-09-28T17:31:18.666Z,12.50
2022-09-28T17:33:47.225Z,12.50
2022-09-28T17:36:18.099Z,12.40
2022-09-28T17:38:49.546Z,12.50
2022-09-28T17:41:20.677Z,12.50
2022-09-28T17:43:49.592Z,12.50
2022-09-28T17:46:28.543Z,12.50
2022-09-28T17:48:59.515Z,12.40
2022-09-28T17:51:28.829Z,12.40
2022-09-28T17:53:58.729Z,12.40
2022-09-28T17:56:31.140Z,12.40
2022-09-28T17:59:03.089Z,12.40
2022-09-28T18:01:34.398Z,12.30
2022-09-28T18:04:04.096Z,12.20
2022-09-28T18:06:33.559Z,12.20
2022-09-28T18:09:04.263Z,12.20
2022-09-28T18:11:33.250Z,12.10
2022-09-28T18:14:01.654Z,12.20
2022-09-28T18:16:30.110Z,12.20
2022-09-28T18:18:59.767Z,12.10
2022-09-28T18:21:27.877Z,12.10
2022-09-28T18:23:56.019Z,12.10
2022-09-28T18:26:25.511Z,12.10
2022-09-28T18:28:55.294Z,12.10
2022-09-28T18:31:23.637Z,12.10
2022-09-28T18:33:51.879Z,12.10
2022-09-28T18:36:19.970Z,12.00
2022-09-28T18:38:48.045Z,11.90
2022-09-28T18:41:16.842Z,11.80
2022-09-28T18:43:50.006Z,11.80
2022-09-28T18:46:19.141Z,11.70
2022-09-28T18:48:48.188Z,11.70
2022-09-28T18:51:16.308Z,11.60
2022-09-28T18:53:44.569Z,11.60
2022-09-28T18:56:18.230Z,11.60
2022-09-28T18:58:51.368Z,11.50
2022-09-28T19:01:30.809Z,11.50
2022-09-28T19:04:01.360Z,11.50
2022-09-28T19:06:30.096Z,11.50
2022-09-28T19:08:58.465Z,11.40
2022-09-28T19:11:27.197Z,11.40
2022-09-28T19:13:57.085Z,11.40
2022-09-28T19:16:28.420Z,11.40
2022-09-28T19:18:57.539Z,11.40
2022-09-28T19:21:26.731Z,11.40
2022-09-28T19:23:55.531Z,11.40
2022-09-28T19:26:25.325Z,11.40
2022-09-28T19:28:53.442Z,11.40
2022-09-28T19:31:23.103Z,11.30
2022-09-28T19:33:51.426Z,11.30
2022-09-28T19:36:23.640Z,11.30
2022-09-28T19:38:53.533Z,11.20
2022-09-28T19:41:43.498Z,11.30
2022-09-28T19:44:15.718Z,11.20
2022-09-28T19:46:45.532Z,11.30
2022-09-28T19:49:18.410Z,11.20
2022-09-28T19:52:08.495Z,11.20
2022-09-28T19:54:38.094Z,11.20
2022-09-28T19:57:07.857Z,11.20
2022-09-28T19:59:36.656Z,11.20
2022-09-28T20:02:07.694Z,11.10
2022-09-28T20:04:36.156Z,11.10
2022-09-28T20:07:05.308Z,11.10
2022-09-28T20:09:33.903Z,11.10
2022-09-28T20:12:02.473Z,11.10
2022-09-28T20:14:34.279Z,11.00
2022-09-28T20:17:07.383Z,11.00
2022-09-28T20:19:36.036Z,11.00
2022-09-28T20:22:04.182Z,11.00
2022-09-28T20:24:32.318Z,11.00
2022-09-28T20:27:01.384Z,11.00
2022-09-28T20:29:31.585Z,11.00
2022-09-28T20:32:00.343Z,11.00
2022-09-28T20:34:29.970Z,11.10
2022-09-28T20:36:58.095Z,11.10
2022-09-28T20:39:26.333Z,11.10
2022-09-28T20:41:55.223Z,11.00
2022-09-28T20:44:23.347Z,11.00
2022-09-28T20:46:52.151Z,11.00
2022-09-28T20:49:20.355Z,11.00
2022-09-28T20:51:50.064Z,11.00
2022-09-28T20:54:18.160Z,11.00
2022-09-28T20:56:48.360Z,11.10
2022-09-28T20:59:16.806Z,11.00
2022-09-28T21:01:45.334Z,11.00
2022-09-28T21:04:13.704Z,11.00
2022-09-28T21:06:43.151Z,11.00
2022-09-28T21:09:13.143Z,11.00
2022-09-28T21:11:41.702Z,11.00
2022-09-28T21:14:10.782Z,10.90
2022-09-28T21:16:39.668Z,10.90
2022-09-28T21:19:07.821Z,11.00
2022-09-28T21:21:36.064Z,10.90
2022-09-28T21:24:04.665Z,11.00
2022-09-28T21:26:35.205Z,11.00
2022-09-28T21:29:05.484Z,11.00
2022-09-28T21:31:38.803Z,11.00
2022-09-28T21:34:07.205Z,11.00
2022-09-28T21:36:35.559Z,11.00
2022-09-28T21:39:08.217Z,11.00
2022-09-28T21:41:40.084Z,11.00
2022-09-28T21:44:08.748Z,11.10
2022-09-28T21:46:38.039Z,11.10
2022-09-28T21:49:08.343Z,11.10
2022-09-28T21:51:37.002Z,11.10
2022-09-28T21:54:05.551Z,11.00
2022-09-28T21:56:33.649Z,11.10
2022-09-28T21:59:03.270Z,11.10
2022-09-28T22:01:31.768Z,11.10
2022-09-28T22:03:59.943Z,11.10
2022-09-28T22:06:29.118Z,11.20
2022-09-28T22:08:57.915Z,11.10
2022-09-28T22:11:28.050Z,11.10
2022-09-28T22:13:58.044Z,11.10
2022-09-28T22:16:29.668Z,11.10
2022-09-28T22:18:58.685Z,11.10
2022-09-28T22:21:28.799Z,11.10
2022-09-28T22:24:00.867Z,11.00
2022-09-28T22:26:29.985Z,11.00
2022-09-28T22:28:59.798Z,11.00
2022-09-28T22:31:31.632Z,11.10
2022-09-28T22:33:59.826Z,11.10
2022-09-28T22:36:28.566Z,11.10
2022-09-28T22:38:58.283Z,11.10
2022-09-28T22:41:26.684Z,11.10
2022-09-28T22:43:55.626Z,11.10
2022-09-28T22:46:26.376Z,11.00
2022-09-28T22:48:57.519Z,11.10
2022-09-28T22:51:27.950Z,11.10
2022-09-28T22:53:57.079Z,11.10
2022-09-28T22:56:25.834Z,11.10
2022-09-28T22:58:54.045Z,11.10
2022-09-28T23:01:24.335Z,11.00
2022-09-28T23:03:55.335Z,11.00
2022-09-28T23:06:26.051Z,11.00
2022-09-28T23:08:54.707Z,10.90
2022-09-28T23:11:23.160Z,11.00
2022-09-28T23:13:51.971Z,11.00
2022-09-28T23:16:20.776Z,10.90
2022-09-28T23:18:49.805Z,11.00
2022-09-28T23:21:20.837Z,11.00
2022-09-28T23:23:53.684Z,10.90
2022-09-28T23:26:23.827Z,10.90
2022-09-28T23:28:52.652Z,10.90
2022-09-28T23:31:23.089Z,10.90
2022-09-28T23:33:51.670Z,10.80
2022-09-28T23:36:21.152Z,10.90
2022-09-28T23:38:49.182Z,10.90
2022-09-28T23:41:17.305Z,10.90
2022-09-28T23:43:45.395Z,10.90
2022-09-28T23:46:17.268Z,10.90
2022-09-28T23:48:48.555Z,10.90
2022-09-28T23:51:16.735Z,10.90
2022-09-28T23:53:46.396Z,10.80
2022-09-28T23:56:14.984Z,10.80
2022-09-28T23:58:43.576Z,10.80
